Airport View

Enter ICAO identifier to see the current METAR for that AWOS.

KFNL for example

KMLS 241553Z AUTO 17004KT 10SM CLR 26/15 A2979

24 Jul 2014 17:01

Frequency: 135.575

Phone: 406-232-1465

Other Area AWOS: KGDV - KBHK - KJDN - K20U

TAF KMLS 241121Z 2412/2512 03010KT P6SM SCT200 FM241400 VRB06KT P6SM SCT100 FM241800 32011KT P6SM VCTS SCT120CB FM242100 33012G22KT P6SM VCTS SCT050CB BKN150 FM250100 35020G29KT P6SM FEW050 BKN150